sensor_id;sensor_type;location;lat;lon;timestamp;pressure;altitude;pressure_sealevel;temperature;humidity
49341;BME280;35209;51.050;13.678;2022-07-29T00:01:55;100137.28;;;16.79;47.93
49341;BME280;35209;51.050;13.678;2022-07-29T00:06:57;100138.63;;;16.86;48.14
49341;BME280;35209;51.050;13.678;2022-07-29T00:12:00;100133.94;;;16.75;48.65
49341;BME280;35209;51.050;13.678;2022-07-29T00:17:02;100136.13;;;16.67;48.82
49341;BME280;35209;51.050;13.678;2022-07-29T00:22:03;100136.03;;;16.53;49.67
49341;BME280;35209;51.050;13.678;2022-07-29T00:27:05;100122.22;;;16.30;49.61
49341;BME280;35209;51.050;13.678;2022-07-29T00:32:07;100111.06;;;16.24;49.98
49341;BME280;35209;51.050;13.678;2022-07-29T00:37:08;100111.09;;;16.39;49.73
49341;BME280;35209;51.050;13.678;2022-07-29T00:42:10;100105.91;;;16.70;48.97
49341;BME280;35209;51.050;13.678;2022-07-29T00:47:12;100111.44;;;16.49;49.43
49341;BME280;35209;51.050;13.678;2022-07-29T00:52:14;100107.81;;;16.19;50.48
49341;BME280;35209;51.050;13.678;2022-07-29T00:57:17;100106.81;;;16.37;50.12
49341;BME280;35209;51.050;13.678;2022-07-29T01:02:19;100087.78;;;16.29;50.68
49341;BME280;35209;51.050;13.678;2022-07-29T01:07:21;100081.63;;;16.28;50.71
49341;BME280;35209;51.050;13.678;2022-07-29T01:12:24;100086.47;;;16.04;51.02
49341;BME280;35209;51.050;13.678;2022-07-29T01:23:13;100081.84;;;15.75;52.16
49341;BME280;35209;51.050;13.678;2022-07-29T01:28:44;100065.50;;;15.67;51.52
49341;BME280;35209;51.050;13.678;2022-07-29T01:33:55;100062.84;;;15.67;51.61
49341;BME280;35209;51.050;13.678;2022-07-29T01:39:06;100068.28;;;15.63;51.93
49341;BME280;35209;51.050;13.678;2022-07-29T01:44:14;100063.91;;;15.62;52.04
49341;BME280;35209;51.050;13.678;2022-07-29T01:49:26;100067.75;;;15.57;52.23
49341;BME280;35209;51.050;13.678;2022-07-29T01:54:34;100058.81;;;15.42;52.96
49341;BME280;35209;51.050;13.678;2022-07-29T01:59:37;100057.75;;;15.45;52.86
49341;BME280;35209;51.050;13.678;2022-07-29T02:04:40;100060.41;;;15.62;52.93
49341;BME280;35209;51.050;13.678;2022-07-29T02:09:45;100066.25;;;15.86;52.23
49341;BME280;35209;51.050;13.678;2022-07-29T02:14:50;100059.56;;;15.79;52.16
49341;BME280;35209;51.050;13.678;2022-07-29T02:19:56;100057.75;;;15.45;53.02
49341;BME280;35209;51.050;13.678;2022-07-29T02:24:59;100054.25;;;15.44;53.04
49341;BME280;35209;51.050;13.678;2022-07-29T02:30:05;100041.34;;;15.38;53.42
49341;BME280;35209;51.050;13.678;2022-07-29T02:35:08;100047.81;;;15.50;52.84
49341;BME280;35209;51.050;13.678;2022-07-29T02:40:12;100047.50;;;15.56;52.98
49341;BME280;35209;51.050;13.678;2022-07-29T02:45:16;100051.47;;;15.47;53.41
49341;BME280;35209;51.050;13.678;2022-07-29T02:50:29;100044.94;;;15.54;53.03
49341;BME280;35209;51.050;13.678;2022-07-29T02:55:40;100041.78;;;15.63;52.66
49341;BME280;35209;51.050;13.678;2022-07-29T03:00:46;100041.09;;;15.77;52.07
49341;BME280;35209;51.050;13.678;2022-07-29T03:05:49;100045.56;;;15.93;52.00
49341;BME280;35209;51.050;13.678;2022-07-29T03:10:51;100047.50;;;15.73;52.68
49341;BME280;35209;51.050;13.678;2022-07-29T03:15:53;100042.19;;;15.56;53.08
49341;BME280;35209;51.050;13.678;2022-07-29T03:20:55;100038.94;;;15.51;53.86
49341;BME280;35209;51.050;13.678;2022-07-29T03:25:57;100045.59;;;15.58;53.13
49341;BME280;35209;51.050;13.678;2022-07-29T03:30:58;100039.69;;;15.53;53.24
49341;BME280;35209;51.050;13.678;2022-07-29T03:36:00;100038.09;;;15.68;52.95
49341;BME280;35209;51.050;13.678;2022-07-29T03:41:07;100034.16;;;15.57;53.15
49341;BME280;35209;51.050;13.678;2022-07-29T03:46:11;100035.63;;;15.63;53.17
49341;BME280;35209;51.050;13.678;2022-07-29T03:51:14;100022.34;;;15.64;53.03
49341;BME280;35209;51.050;13.678;2022-07-29T03:56:16;100029.28;;;15.67;52.88
49341;BME280;35209;51.050;13.678;2022-07-29T04:01:22;100033.38;;;15.55;53.90
49341;BME280;35209;51.050;13.678;2022-07-29T04:06:24;100027.38;;;15.52;53.64
49341;BME280;35209;51.050;13.678;2022-07-29T04:11:27;100043.41;;;15.83;52.95
49341;BME280;35209;51.050;13.678;2022-07-29T04:16:28;100036.88;;;16.06;52.81
49341;BME280;35209;51.050;13.678;2022-07-29T04:21:30;100041.69;;;15.82;53.76
49341;BME280;35209;51.050;13.678;2022-07-29T04:26:32;100044.31;;;16.00;53.16
49341;BME280;35209;51.050;13.678;2022-07-29T04:31:34;100036.66;;;15.94;54.25
49341;BME280;35209;51.050;13.678;2022-07-29T04:36:36;100044.34;;;16.31;52.94
49341;BME280;35209;51.050;13.678;2022-07-29T04:41:38;100043.94;;;16.39;52.47
49341;BME280;35209;51.050;13.678;2022-07-29T04:46:39;100048.44;;;16.37;52.34
49341;BME280;35209;51.050;13.678;2022-07-29T04:51:41;100048.47;;;16.53;51.37
49341;BME280;35209;51.050;13.678;2022-07-29T04:56:43;100040.25;;;16.26;52.79
49341;BME280;35209;51.050;13.678;2022-07-29T05:01:44;100038.44;;;16.42;52.03
49341;BME280;35209;51.050;13.678;2022-07-29T05:06:46;100041.69;;;16.63;51.69
49341;BME280;35209;51.050;13.678;2022-07-29T05:11:48;100027.38;;;16.81;50.98
49341;BME280;35209;51.050;13.678;2022-07-29T05:16:50;100035.28;;;17.13;50.19
49341;BME280;35209;51.050;13.678;2022-07-29T05:21:52;100026.50;;;16.97;50.65
49341;BME280;35209;51.050;13.678;2022-07-29T05:26:54;100030.06;;;17.11;50.40
49341;BME280;35209;51.050;13.678;2022-07-29T05:31:55;100044.88;;;17.15;50.13
49341;BME280;35209;51.050;13.678;2022-07-29T05:36:57;100044.03;;;17.15;50.41
49341;BME280;35209;51.050;13.678;2022-07-29T05:41:59;100049.72;;;17.09;51.25
49341;BME280;35209;51.050;13.678;2022-07-29T05:47:00;100040.53;;;17.73;49.92
49341;BME280;35209;51.050;13.678;2022-07-29T05:52:02;100043.59;;;17.81;50.37
49341;BME280;35209;51.050;13.678;2022-07-29T05:57:04;100036.84;;;18.19;49.94
49341;BME280;35209;51.050;13.678;2022-07-29T06:02:06;100044.06;;;18.17;49.35
49341;BME280;35209;51.050;13.678;2022-07-29T06:07:08;100046.00;;;18.41;48.79
49341;BME280;35209;51.050;13.678;2022-07-29T06:12:10;100049.81;;;18.52;48.62
49341;BME280;35209;51.050;13.678;2022-07-29T06:17:11;100039.63;;;18.85;47.61
49341;BME280;35209;51.050;13.678;2022-07-29T06:22:15;100043.81;;;18.89;48.34
49341;BME280;35209;51.050;13.678;2022-07-29T06:27:17;100040.09;;;19.32;46.99
49341;BME280;35209;51.050;13.678;2022-07-29T06:32:19;100040.59;;;19.77;45.16
49341;BME280;35209;51.050;13.678;2022-07-29T06:37:23;100048.59;;;19.77;45.58
49341;BME280;35209;51.050;13.678;2022-07-29T06:42:26;100048.38;;;19.80;46.17
49341;BME280;35209;51.050;13.678;2022-07-29T06:47:28;100052.75;;;19.94;46.10
49341;BME280;35209;51.050;13.678;2022-07-29T06:52:29;100056.44;;;20.16;45.57
49341;BME280;35209;51.050;13.678;2022-07-29T06:57:31;100060.03;;;20.41;44.19
49341;BME280;35209;51.050;13.678;2022-07-29T07:02:33;100054.09;;;20.25;45.46
49341;BME280;35209;51.050;13.678;2022-07-29T07:07:35;100055.78;;;20.51;45.04
49341;BME280;35209;51.050;13.678;2022-07-29T07:12:36;100061.97;;;20.76;43.90
49341;BME280;35209;51.050;13.678;2022-07-29T07:17:38;100056.81;;;20.36;44.90
49341;BME280;35209;51.050;13.678;2022-07-29T07:22:39;100055.56;;;20.54;44.47
49341;BME280;35209;51.050;13.678;2022-07-29T07:27:44;100047.06;;;20.84;44.12
49341;BME280;35209;51.050;13.678;2022-07-29T07:32:46;100049.94;;;20.70;44.32
49341;BME280;35209;51.050;13.678;2022-07-29T07:37:48;100044.41;;;20.84;44.21
49341;BME280;35209;51.050;13.678;2022-07-29T07:42:49;100048.16;;;21.06;43.81
49341;BME280;35209;51.050;13.678;2022-07-29T07:47:51;100048.88;;;21.32;43.19
49341;BME280;35209;51.050;13.678;2022-07-29T07:52:55;100040.34;;;21.03;43.61
49341;BME280;35209;51.050;13.678;2022-07-29T07:57:59;100037.88;;;21.48;42.17
49341;BME280;35209;51.050;13.678;2022-07-29T08:03:01;100037.00;;;21.36;43.29
49341;BME280;35209;51.050;13.678;2022-07-29T08:08:03;100023.72;;;22.26;41.35
49341;BME280;35209;51.050;13.678;2022-07-29T08:13:08;100024.66;;;22.47;41.33
49341;BME280;35209;51.050;13.678;2022-07-29T08:18:12;100021.47;;;22.53;40.91
49341;BME280;35209;51.050;13.678;2022-07-29T08:23:14;100016.84;;;22.99;40.51
49341;BME280;35209;51.050;13.678;2022-07-29T08:28:17;100011.88;;;22.94;40.68
49341;BME280;35209;51.050;13.678;2022-07-29T08:33:18;100013.97;;;23.95;39.01
49341;BME280;35209;51.050;13.678;2022-07-29T08:38:20;100010.34;;;24.56;38.00
49341;BME280;35209;51.050;13.678;2022-07-29T08:43:22;100014.03;;;24.64;37.58
49341;BME280;35209;51.050;13.678;2022-07-29T08:48:24;100010.50;;;24.14;38.45
49341;BME280;35209;51.050;13.678;2022-07-29T08:53:26;99999.06;;;24.81;37.97
49341;BME280;35209;51.050;13.678;2022-07-29T08:58:32;100004.00;;;25.44;36.63
49341;BME280;35209;51.050;13.678;2022-07-29T09:03:40;99997.81;;;25.90;36.14
49341;BME280;35209;51.050;13.678;2022-07-29T09:08:42;99991.69;;;26.53;35.61
49341;BME280;35209;51.050;13.678;2022-07-29T09:13:44;99981.47;;;27.10;34.22
49341;BME280;35209;51.050;13.678;2022-07-29T09:18:46;99977.19;;;27.26;33.86
49341;BME280;35209;51.050;13.678;2022-07-29T09:24:11;99963.56;;;27.61;33.61
49341;BME280;35209;51.050;13.678;2022-07-29T09:34:27;99954.63;;;27.35;33.52
49341;BME280;35209;51.050;13.678;2022-07-29T09:39:37;99967.19;;;27.44;33.26
49341;BME280;35209;51.050;13.678;2022-07-29T09:44:48;99955.94;;;27.31;33.69
49341;BME280;35209;51.050;13.678;2022-07-29T09:49:55;99962.31;;;27.74;33.85
49341;BME280;35209;51.050;13.678;2022-07-29T09:55:06;99965.16;;;27.98;32.92
49341;BME280;35209;51.050;13.678;2022-07-29T10:00:13;99968.88;;;28.48;32.68
49341;BME280;35209;51.050;13.678;2022-07-29T10:05:23;99955.44;;;28.97;31.51
49341;BME280;35209;51.050;13.678;2022-07-29T10:10:31;99947.41;;;29.52;30.69
49341;BME280;35209;51.050;13.678;2022-07-29T10:15:35;99953.09;;;30.29;30.22
49341;BME280;35209;51.050;13.678;2022-07-29T10:20:42;99938.69;;;30.83;29.16
49341;BME280;35209;51.050;13.678;2022-07-29T10:25:45;99933.91;;;31.08;28.76
49341;BME280;35209;51.050;13.678;2022-07-29T10:30:49;99934.19;;;30.44;29.54
49341;BME280;35209;51.050;13.678;2022-07-29T10:41:27;99928.94;;;30.43;29.07
49341;BME280;35209;51.050;13.678;2022-07-29T10:46:55;99922.38;;;31.21;28.40
49341;BME280;35209;51.050;13.678;2022-07-29T11:08:16;99916.00;;;30.76;28.21
49341;BME280;35209;51.050;13.678;2022-07-29T11:29:31;99903.16;;;31.75;26.86
49341;BME280;35209;51.050;13.678;2022-07-29T11:34:40;99890.00;;;31.78;27.01
49341;BME280;35209;51.050;13.678;2022-07-29T11:39:43;99886.25;;;32.30;25.99
49341;BME280;35209;51.050;13.678;2022-07-29T11:45:02;99890.81;;;32.08;26.87
49341;BME280;35209;51.050;13.678;2022-07-29T11:50:36;99891.63;;;32.60;26.42
49341;BME280;35209;51.050;13.678;2022-07-29T11:55:44;99889.53;;;32.40;26.81
49341;BME280;35209;51.050;13.678;2022-07-29T12:01:06;99890.50;;;32.18;26.61
49341;BME280;35209;51.050;13.678;2022-07-29T12:06:12;99896.94;;;32.10;26.85
49341;BME280;35209;51.050;13.678;2022-07-29T12:11:17;99884.28;;;31.14;28.01
49341;BME280;35209;51.050;13.678;2022-07-29T12:16:22;99885.25;;;30.60;28.47
49341;BME280;35209;51.050;13.678;2022-07-29T12:21:46;99882.13;;;30.49;28.56
49341;BME280;35209;51.050;13.678;2022-07-29T12:26:58;99876.28;;;31.50;27.53
49341;BME280;35209;51.050;13.678;2022-07-29T12:32:00;99872.34;;;31.53;27.79
49341;BME280;35209;51.050;13.678;2022-07-29T12:37:03;99867.31;;;30.97;28.71
49341;BME280;35209;51.050;13.678;2022-07-29T12:42:14;99864.38;;;31.36;27.74
49341;BME280;35209;51.050;13.678;2022-07-29T12:47:19;99858.47;;;31.33;28.19
49341;BME280;35209;51.050;13.678;2022-07-29T12:52:28;99859.75;;;30.24;28.90
49341;BME280;35209;51.050;13.678;2022-07-29T12:57:30;99848.53;;;29.96;29.91
49341;BME280;35209;51.050;13.678;2022-07-29T13:02:34;99855.91;;;30.10;29.86
49341;BME280;35209;51.050;13.678;2022-07-29T13:07:38;99853.94;;;30.04;30.00
49341;BME280;35209;51.050;13.678;2022-07-29T13:13:08;99846.38;;;30.22;29.63
49341;BME280;35209;51.050;13.678;2022-07-29T13:18:30;99849.63;;;30.18;29.72
49341;BME280;35209;51.050;13.678;2022-07-29T13:23:32;99844.06;;;30.57;29.47
49341;BME280;35209;51.050;13.678;2022-07-29T13:28:38;99847.94;;;30.17;29.26
49341;BME280;35209;51.050;13.678;2022-07-29T13:33:44;99837.28;;;30.15;29.64
49341;BME280;35209;51.050;13.678;2022-07-29T13:38:46;99836.50;;;30.52;29.16
49341;BME280;35209;51.050;13.678;2022-07-29T13:43:47;99831.81;;;30.46;29.93
49341;BME280;35209;51.050;13.678;2022-07-29T13:48:50;99824.34;;;30.63;28.59
49341;BME280;35209;51.050;13.678;2022-07-29T13:53:52;99830.00;;;30.38;29.87
49341;BME280;35209;51.050;13.678;2022-07-29T13:58:53;99834.19;;;30.64;29.33
49341;BME280;35209;51.050;13.678;2022-07-29T14:03:55;99826.59;;;30.82;28.83
49341;BME280;35209;51.050;13.678;2022-07-29T14:08:57;99814.69;;;30.83;29.15
49341;BME280;35209;51.050;13.678;2022-07-29T14:13:59;99826.22;;;30.62;29.35
49341;BME280;35209;51.050;13.678;2022-07-29T14:19:01;99808.16;;;30.55;29.23
49341;BME280;35209;51.050;13.678;2022-07-29T14:24:03;99811.44;;;30.27;29.90
49341;BME280;35209;51.050;13.678;2022-07-29T14:29:17;99809.94;;;30.25;29.80
49341;BME280;35209;51.050;13.678;2022-07-29T14:34:19;99808.53;;;29.75;30.39
49341;BME280;35209;51.050;13.678;2022-07-29T14:39:22;99809.06;;;29.70;30.33
49341;BME280;35209;51.050;13.678;2022-07-29T14:44:32;99817.59;;;29.51;30.87
49341;BME280;35209;51.050;13.678;2022-07-29T14:49:34;99817.13;;;29.39;30.56
49341;BME280;35209;51.050;13.678;2022-07-29T14:54:36;99809.44;;;29.20;30.87
49341;BME280;35209;51.050;13.678;2022-07-29T14:59:38;99811.00;;;29.06;31.35
49341;BME280;35209;51.050;13.678;2022-07-29T15:04:40;99812.50;;;29.08;30.82
49341;BME280;35209;51.050;13.678;2022-07-29T15:09:42;99814.66;;;29.21;31.00
49341;BME280;35209;51.050;13.678;2022-07-29T15:14:50;99802.84;;;29.14;31.45
49341;BME280;35209;51.050;13.678;2022-07-29T15:19:52;99808.56;;;29.27;31.01
49341;BME280;35209;51.050;13.678;2022-07-29T15:24:53;99808.28;;;29.14;30.50
49341;BME280;35209;51.050;13.678;2022-07-29T15:29:55;99799.50;;;29.43;30.04
49341;BME280;35209;51.050;13.678;2022-07-29T15:34:57;99794.41;;;29.48;29.54
49341;BME280;35209;51.050;13.678;2022-07-29T15:39:58;99792.47;;;29.26;30.43
49341;BME280;35209;51.050;13.678;2022-07-29T15:45:00;99794.06;;;29.12;30.63
49341;BME280;35209;51.050;13.678;2022-07-29T15:50:05;99785.13;;;29.03;29.99
49341;BME280;35209;51.050;13.678;2022-07-29T15:55:13;99779.69;;;29.03;30.38
49341;BME280;35209;51.050;13.678;2022-07-29T16:00:16;99769.38;;;28.90;30.90
49341;BME280;35209;51.050;13.678;2022-07-29T16:05:18;99769.47;;;28.58;31.80
49341;BME280;35209;51.050;13.678;2022-07-29T16:10:20;99769.47;;;28.50;32.02
49341;BME280;35209;51.050;13.678;2022-07-29T16:15:22;99766.56;;;28.67;31.44
49341;BME280;35209;51.050;13.678;2022-07-29T16:20:23;99759.16;;;28.53;31.94
49341;BME280;35209;51.050;13.678;2022-07-29T16:25:26;99750.53;;;28.25;32.75
49341;BME280;35209;51.050;13.678;2022-07-29T16:30:48;99752.56;;;27.99;33.17
49341;BME280;35209;51.050;13.678;2022-07-29T16:35:51;99757.63;;;27.94;32.83
49341;BME280;35209;51.050;13.678;2022-07-29T16:40:53;99760.47;;;27.84;33.47
49341;BME280;35209;51.050;13.678;2022-07-29T16:45:55;99757.28;;;27.80;33.73
49341;BME280;35209;51.050;13.678;2022-07-29T16:50:56;99757.41;;;27.79;33.44
49341;BME280;35209;51.050;13.678;2022-07-29T16:55:58;99763.66;;;27.79;33.47
49341;BME280;35209;51.050;13.678;2022-07-29T17:01:00;99757.09;;;27.74;33.14
49341;BME280;35209;51.050;13.678;2022-07-29T17:06:02;99754.19;;;27.75;33.20
49341;BME280;35209;51.050;13.678;2022-07-29T17:11:03;99752.81;;;27.63;33.63
49341;BME280;35209;51.050;13.678;2022-07-29T17:16:05;99746.63;;;27.79;33.39
49341;BME280;35209;51.050;13.678;2022-07-29T17:21:07;99758.00;;;27.56;33.60
49341;BME280;35209;51.050;13.678;2022-07-29T17:26:08;99755.56;;;27.79;33.30
49341;BME280;35209;51.050;13.678;2022-07-29T17:31:10;99748.59;;;27.69;33.10
49341;BME280;35209;51.050;13.678;2022-07-29T17:36:12;99762.94;;;27.69;33.29
49341;BME280;35209;51.050;13.678;2022-07-29T17:41:26;99753.31;;;27.66;33.10
49341;BME280;35209;51.050;13.678;2022-07-29T17:46:28;99746.91;;;27.67;33.25
49341;BME280;35209;51.050;13.678;2022-07-29T17:51:30;99748.16;;;27.31;33.96
49341;BME280;35209;51.050;13.678;2022-07-29T17:56:31;99745.16;;;27.42;33.83
49341;BME280;35209;51.050;13.678;2022-07-29T18:01:33;99734.78;;;27.21;34.01
49341;BME280;35209;51.050;13.678;2022-07-29T18:06:35;99737.97;;;27.16;33.70
49341;BME280;35209;51.050;13.678;2022-07-29T18:11:37;99744.19;;;27.09;34.07
49341;BME280;35209;51.050;13.678;2022-07-29T18:16:39;99752.25;;;26.49;37.20
49341;BME280;35209;51.050;13.678;2022-07-29T18:21:41;99763.44;;;26.18;38.17
49341;BME280;35209;51.050;13.678;2022-07-29T18:26:55;99761.75;;;25.99;38.85
49341;BME280;35209;51.050;13.678;2022-07-29T18:31:57;99766.91;;;25.92;38.93
49341;BME280;35209;51.050;13.678;2022-07-29T18:37:00;99769.06;;;25.61;39.66
49341;BME280;35209;51.050;13.678;2022-07-29T18:42:02;99767.38;;;25.60;39.86
49341;BME280;35209;51.050;13.678;2022-07-29T18:47:04;99759.72;;;25.38;40.62
49341;BME280;35209;51.050;13.678;2022-07-29T18:52:06;99765.81;;;25.12;40.95
49341;BME280;35209;51.050;13.678;2022-07-29T18:57:08;99758.59;;;25.03;41.39
49341;BME280;35209;51.050;13.678;2022-07-29T19:02:30;99763.78;;;24.77;42.22
49341;BME280;35209;51.050;13.678;2022-07-29T19:07:32;99770.88;;;24.69;42.80
49341;BME280;35209;51.050;13.678;2022-07-29T19:12:34;99776.13;;;24.60;42.81
49341;BME280;35209;51.050;13.678;2022-07-29T19:17:35;99783.91;;;24.63;43.53
49341;BME280;35209;51.050;13.678;2022-07-29T19:22:37;99789.59;;;24.51;43.59
49341;BME280;35209;51.050;13.678;2022-07-29T19:27:39;99808.69;;;24.38;43.62
49341;BME280;35209;51.050;13.678;2022-07-29T19:32:41;99800.03;;;24.34;44.15
49341;BME280;35209;51.050;13.678;2022-07-29T19:37:43;99802.59;;;24.55;43.70
49341;BME280;35209;51.050;13.678;2022-07-29T19:42:44;99807.97;;;24.46;44.35
49341;BME280;35209;51.050;13.678;2022-07-29T19:47:49;99803.31;;;24.19;45.14
49341;BME280;35209;51.050;13.678;2022-07-29T19:52:51;99812.78;;;24.23;45.02
49341;BME280;35209;51.050;13.678;2022-07-29T19:57:53;99818.28;;;24.31;45.48
49341;BME280;35209;51.050;13.678;2022-07-29T20:02:55;99821.38;;;24.16;45.54
49341;BME280;35209;51.050;13.678;2022-07-29T20:07:57;99826.75;;;24.07;45.24
49341;BME280;35209;51.050;13.678;2022-07-29T20:12:59;99833.94;;;23.87;45.71
49341;BME280;35209;51.050;13.678;2022-07-29T20:18:01;99829.09;;;23.81;46.49
49341;BME280;35209;51.050;13.678;2022-07-29T20:23:03;99824.59;;;23.81;46.51
49341;BME280;35209;51.050;13.678;2022-07-29T20:28:04;99828.25;;;23.71;46.21
49341;BME280;35209;51.050;13.678;2022-07-29T20:33:06;99816.81;;;23.78;46.00
49341;BME280;35209;51.050;13.678;2022-07-29T20:38:08;99826.72;;;23.78;45.90
49341;BME280;35209;51.050;13.678;2022-07-29T20:43:10;99825.75;;;23.88;46.46
49341;BME280;35209;51.050;13.678;2022-07-29T20:48:11;99822.31;;;23.67;47.23
49341;BME280;35209;51.050;13.678;2022-07-29T20:53:14;99830.94;;;23.80;46.16
49341;BME280;35209;51.050;13.678;2022-07-29T20:58:17;99832.50;;;23.73;45.13
49341;BME280;35209;51.050;13.678;2022-07-29T21:03:20;99833.34;;;23.74;44.66
49341;BME280;35209;51.050;13.678;2022-07-29T21:08:21;99837.03;;;23.82;44.45
49341;BME280;35209;51.050;13.678;2022-07-29T21:13:23;99836.84;;;23.64;44.73
49341;BME280;35209;51.050;13.678;2022-07-29T21:18:26;99837.91;;;23.52;45.12
49341;BME280;35209;51.050;13.678;2022-07-29T21:23:31;99838.53;;;23.25;45.64
49341;BME280;35209;51.050;13.678;2022-07-29T21:28:32;99841.16;;;23.15;46.20
49341;BME280;35209;51.050;13.678;2022-07-29T21:33:40;99839.88;;;23.20;46.04
49341;BME280;35209;51.050;13.678;2022-07-29T21:38:42;99832.38;;;23.13;46.65
49341;BME280;35209;51.050;13.678;2022-07-29T21:43:44;99839.72;;;23.11;46.43
49341;BME280;35209;51.050;13.678;2022-07-29T21:48:46;99836.50;;;23.17;46.88
49341;BME280;35209;51.050;13.678;2022-07-29T21:53:48;99824.78;;;23.19;46.56
49341;BME280;35209;51.050;13.678;2022-07-29T21:58:54;99833.84;;;22.97;47.13
49341;BME280;35209;51.050;13.678;2022-07-29T22:03:56;99833.06;;;22.85;48.04
49341;BME280;35209;51.050;13.678;2022-07-29T22:08:58;99830.31;;;22.96;48.10
49341;BME280;35209;51.050;13.678;2022-07-29T22:13:59;99835.69;;;22.96;48.08
49341;BME280;35209;51.050;13.678;2022-07-29T22:19:01;99840.38;;;22.62;48.42
49341;BME280;35209;51.050;13.678;2022-07-29T22:24:04;99842.00;;;22.53;48.79
49341;BME280;35209;51.050;13.678;2022-07-29T22:29:07;99835.34;;;22.69;49.30
49341;BME280;35209;51.050;13.678;2022-07-29T22:34:08;99834.84;;;22.54;49.69
49341;BME280;35209;51.050;13.678;2022-07-29T22:39:13;99837.16;;;22.47;49.54
49341;BME280;35209;51.050;13.678;2022-07-29T22:44:16;99829.59;;;22.52;50.19
49341;BME280;35209;51.050;13.678;2022-07-29T22:49:18;99827.28;;;22.48;50.48
49341;BME280;35209;51.050;13.678;2022-07-29T22:54:20;99829.00;;;22.28;50.94
49341;BME280;35209;51.050;13.678;2022-07-29T22:59:21;99822.47;;;22.09;51.21
49341;BME280;35209;51.050;13.678;2022-07-29T23:04:23;99816.88;;;22.12;51.34
49341;BME280;35209;51.050;13.678;2022-07-29T23:09:25;99815.28;;;22.10;51.11
49341;BME280;35209;51.050;13.678;2022-07-29T23:14:26;99819.91;;;22.08;50.98
49341;BME280;35209;51.050;13.678;2022-07-29T23:19:28;99816.06;;;22.33;50.83
49341;BME280;35209;51.050;13.678;2022-07-29T23:24:30;99835.50;;;22.35;50.86
49341;BME280;35209;51.050;13.678;2022-07-29T23:29:31;99843.22;;;22.28;51.06
49341;BME280;35209;51.050;13.678;2022-07-29T23:34:37;99836.03;;;22.29;51.58
49341;BME280;35209;51.050;13.678;2022-07-29T23:39:38;99839.34;;;22.21;52.36
49341;BME280;35209;51.050;13.678;2022-07-29T23:44:40;99841.44;;;22.06;55.57
49341;BME280;35209;51.050;13.678;2022-07-29T23:49:42;99842.63;;;21.70;57.91
49341;BME280;35209;51.050;13.678;2022-07-29T23:54:44;99844.22;;;21.50;59.94
49341;BME280;35209;51.050;13.678;2022-07-29T23:59:45;99850.28;;;21.19;62.53
